Time;durP1;ratioP1;P1;durP2;ratioP2;P2;SDS_P1;SDS_P2;PMS_P1;PMS_P2;Temp;Humidity;BMP_temperature;BMP_pressure;BME280_temperature;BME280_humidity;BME280_pressure;Samples;Min_cycle;Max_cycle;Signal;HPM_P1;HPM_P2
2022/09/23 00:01:09;;;;;;;13.00;11.80;;;;;;;10.03;nan;101559.91;5015021;28;20034;-51
2022/09/23 00:03:37;;;;;;;13.38;12.02;;;;;;;10.41;nan;101619.72;5015393;28;20113;-54
2022/09/23 00:06:09;;;;;;;14.07;12.25;;;;;;;10.41;nan;101617.09;5014011;28;20461;-54
2022/09/23 00:08:34;;;;;;;13.40;12.10;;;;;;;10.44;nan;101633.69;5030266;28;20466;-52
2022/09/23 00:11:05;;;;;;;13.60;11.32;;;;;;;10.00;nan;101560.84;5015167;28;20036;-52
2022/09/23 00:13:32;;;;;;;13.63;12.23;;;;;;;10.03;nan;101571.31;4997303;28;20172;-52
2022/09/23 00:16:01;;;;;;;17.05;11.82;;;;;;;10.06;nan;101567.75;5013804;28;20488;-53
2022/09/23 00:18:26;;;;;;;13.57;12.05;;;;;;;10.31;nan;101615.53;5014798;28;20069;-53
2022/09/23 00:20:52;;;;;;;14.40;12.90;;;;;;;9.88;nan;101550.53;5014710;28;20588;-50
2022/09/23 00:23:17;;;;;;;14.50;12.75;;;;;;;10.29;nan;101622.59;5014843;28;20038;-51
2022/09/23 00:25:42;;;;;;;14.27;12.85;;;;;;;10.24;nan;101620.06;5015209;28;20045;-54
2022/09/23 00:28:08;;;;;;;13.25;11.90;;;;;;;10.07;nan;101591.38;5014521;28;20026;-51
2022/09/23 00:30:33;;;;;;;13.70;12.30;;;;;;;9.78;nan;101551.59;5014835;28;20038;-54
2022/09/23 00:32:59;;;;;;;13.65;12.38;;;;;;;10.12;nan;101615.84;5014629;28;20037;-53
2022/09/23 00:35:24;;;;;;;13.00;11.73;;;;;;;9.93;nan;101587.25;5013463;28;20034;-56
2022/09/23 00:37:49;;;;;;;14.52;12.45;;;;;;;9.68;nan;101547.41;5014411;28;20038;-57
2022/09/23 00:40:15;;;;;;;16.73;12.88;;;;;;;10.00;nan;101605.53;5014426;28;20034;-51
2022/09/23 00:42:50;;;;;;;13.77;12.38;;;;;;;9.64;nan;101543.06;5014040;28;20145;-52
2022/09/23 00:45:17;;;;;;;14.07;12.60;;;;;;;9.81;nan;101574.31;5013309;28;20470;-52
2022/09/23 00:48:00;;;;;;;13.40;11.98;;;;;;;9.99;nan;101622.22;5012714;28;20041;-53
2022/09/23 00:50:30;;;;;;;14.70;12.75;;;;;;;9.97;nan;101610.84;5013063;28;20104;-51
2022/09/23 00:52:57;;;;;;;13.45;12.18;;;;;;;9.89;nan;101606.63;5012919;28;20477;-57
2022/09/23 00:55:26;;;;;;;13.77;12.48;;;;;;;9.95;nan;101601.28;5013173;28;20037;-53
2022/09/23 00:57:54;;;;;;;15.25;12.43;;;;;;;9.96;nan;101601.22;5013142;28;20022;-54
2022/09/23 01:00:20;;;;;;;14.00;12.57;;;;;;;9.59;nan;101540.53;5012989;28;20112;-51
2022/09/23 01:02:46;;;;;;;14.45;12.90;;;;;;;9.97;nan;101602.97;5012847;28;20034;-53
2022/09/23 01:05:11;;;;;;;14.02;12.55;;;;;;;9.58;nan;101527.41;5014530;28;20049;-53
2022/09/23 01:07:37;;;;;;;14.63;13.10;;;;;;;9.88;nan;101581.22;5012844;28;20046;-52
2022/09/23 01:10:03;;;;;;;14.07;12.57;;;;;;;9.61;nan;101540.50;5013935;28;20070;-55
2022/09/23 01:12:43;;;;;;;13.57;12.27;;;;;;;9.95;nan;101606.53;5012736;28;20393;-54
2022/09/23 01:15:19;;;;;;;13.43;11.98;;;;;;;9.94;nan;101600.41;5012714;28;20041;-54
2022/09/23 01:17:51;;;;;;;14.98;12.85;;;;;;;9.91;nan;101596.94;5012811;28;20559;-54
2022/09/23 01:20:29;;;;;;;13.40;11.98;;;;;;;9.90;nan;101605.72;5014252;28;20454;-56
2022/09/23 01:23:18;;;;;;;14.18;12.68;;;;;;;9.87;nan;101593.50;5013444;28;20033;-53
2022/09/23 01:25:58;;;;;;;13.68;12.38;;;;;;;9.85;nan;101589.16;5012408;28;20119;-49
2022/09/23 01:28:24;;;;;;;14.95;12.30;;;;;;;9.82;nan;101591.84;5012382;28;20113;-52
2022/09/23 01:31:20;;;;;;;13.68;12.38;;;;;;;9.72;nan;101591.13;5013475;28;20080;-49
2022/09/23 01:34:00;;;;;;;16.75;12.68;;;;;;;9.74;nan;101599.88;5013057;28;20049;-53
2022/09/23 01:36:41;;;;;;;14.27;12.55;;;;;;;9.61;nan;101572.03;5012518;28;20029;-57
2022/09/23 01:39:28;;;;;;;12.98;11.60;;;;;;;9.71;nan;101572.75;5012309;28;20029;-50
2022/09/23 01:42:05;;;;;;;16.20;13.00;;;;;;;9.69;nan;101578.03;5012138;28;20045;-52
2022/09/23 01:44:50;;;;;;;13.30;11.95;;;;;;;9.66;nan;101564.94;5013167;28;20042;-49
2022/09/23 01:47:23;;;;;;;14.35;11.63;;;;;;;9.29;nan;101498.13;5012234;28;20042;-50
2022/09/23 01:53:11;;;;;;;15.77;12.50;;;;;;;9.25;nan;101496.47;5012465;28;20121;-49
2022/09/23 01:55:40;;;;;;;13.43;11.73;;;;;;;9.61;nan;101551.00;5012352;28;20030;-52
2022/09/23 01:58:17;;;;;;;13.30;11.88;;;;;;;9.41;nan;101513.69;5011936;28;20504;-52
2022/09/23 02:00:49;;;;;;;13.73;11.18;;;;;;;9.63;nan;101554.50;5013094;28;20034;-56
2022/09/23 02:03:17;;;;;;;12.40;11.25;;;;;;;9.57;nan;101551.97;5011678;28;20053;-52
2022/09/23 02:05:46;;;;;;;11.85;10.55;;;;;;;9.55;nan;101549.34;4995476;28;20389;-55
2022/09/23 02:08:26;;;;;;;13.35;11.02;;;;;;;9.25;nan;101486.81;5011949;28;20521;-51
2022/09/23 02:10:55;;;;;;;12.48;10.95;;;;;;;9.19;nan;101486.06;5013042;28;20037;-53
2022/09/23 02:13:40;;;;;;;11.80;10.60;;;;;;;9.49;nan;101536.31;5011476;28;20050;-50
2022/09/23 02:16:14;;;;;;;14.20;11.35;;;;;;;9.59;nan;101552.81;5011913;28;20029;-49
2022/09/23 02:19:00;;;;;;;12.02;10.70;;;;;;;9.25;nan;101481.53;5013008;28;20038;-54
2022/09/23 02:21:32;;;;;;;12.20;10.23;;;;;;;9.37;nan;101489.22;4995252;28;20029;-53
2022/09/23 02:24:10;;;;;;;11.70;9.80;;;;;;;9.14;nan;101457.22;5011605;28;20025;-52
2022/09/23 02:26:48;;;;;;;10.40;9.40;;;;;;;9.67;nan;101547.41;5012686;28;20034;-51
2022/09/23 02:29:35;;;;;;;10.77;9.68;;;;;;;9.69;nan;101533.34;5012796;28;20090;-55
2022/09/23 02:32:22;;;;;;;11.43;9.85;;;;;;;9.41;nan;101484.78;5012754;28;20040;-49
2022/09/23 02:34:57;;;;;;;10.63;9.57;;;;;;;9.74;nan;101535.91;5010806;28;20033;-51
2022/09/23 02:37:41;;;;;;;12.40;9.65;;;;;;;9.74;nan;101541.16;5012600;28;20037;-54
2022/09/23 02:40:24;;;;;;;10.75;9.57;;;;;;;9.76;nan;101531.47;5012655;28;20478;-51
2022/09/23 02:43:15;;;;;;;9.98;9.05;;;;;;;9.52;nan;101483.72;5010883;28;20049;-52
2022/09/23 02:45:41;;;;;;;9.40;8.50;;;;;;;9.78;nan;101524.44;5011319;28;20041;-53
2022/09/23 02:48:17;;;;;;;10.82;9.00;;;;;;;9.79;nan;101513.00;5012612;28;20025;-52
2022/09/23 02:50:42;;;;;;;10.90;9.43;;;;;;;9.83;nan;101517.34;5011379;28;20030;-52
2022/09/23 02:53:08;;;;;;;10.13;8.43;;;;;;;9.42;nan;101448.00;5011067;28;20585;-50
2022/09/23 02:55:33;;;;;;;10.23;9.23;;;;;;;9.48;nan;101454.91;5012303;28;20045;-52
2022/09/23 02:58:00;;;;;;;10.65;9.55;;;;;;;9.86;nan;101526.03;5012919;28;20080;-50
2022/09/23 03:00:34;;;;;;;10.90;9.05;;;;;;;9.89;nan;101519.84;5012439;28;20492;-51
2022/09/23 03:03:11;;;;;;;10.40;9.00;;;;;;;9.91;nan;101512.78;5011162;28;20038;-55
2022/09/23 03:05:43;;;;;;;11.38;9.40;;;;;;;9.93;nan;101511.00;5011161;28;20125;-50
2022/09/23 03:08:28;;;;;;;11.55;9.30;;;;;;;9.90;nan;101500.53;5011325;28;20529;-55
2022/09/23 03:11:07;;;;;;;10.27;8.75;;;;;;;9.91;nan;101511.03;5011275;28;20481;-49
2022/09/23 03:14:17;;;;;;;9.23;8.30;;;;;;;9.92;nan;101502.25;4994391;28;20064;-55
2022/09/23 03:16:49;;;;;;;9.63;8.02;;;;;;;9.44;nan;101419.03;4990299;28;20112;-49
2022/09/23 03:19:47;;;;;;;9.85;8.77;;;;;;;9.97;nan;101502.16;5012198;28;20034;-52
2022/09/23 03:22:17;;;;;;;10.10;8.55;;;;;;;9.99;nan;101500.34;5010895;28;20462;-49
2022/09/23 03:24:44;;;;;;;9.63;8.63;;;;;;;9.66;nan;101438.75;5012334;28;20209;-52
2022/09/23 03:27:13;;;;;;;10.90;8.65;;;;;;;9.91;nan;101475.97;5010990;28;20092;-50
2022/09/23 03:29:46;;;;;;;9.50;8.60;;;;;;;9.72;nan;101440.44;5010878;28;20034;-59
2022/09/23 03:32:12;;;;;;;9.88;8.85;;;;;;;10.10;nan;101501.00;5012167;28;20030;-57
2022/09/23 03:34:40;;;;;;;11.15;8.32;;;;;;;10.09;nan;101496.66;5010886;28;20048;-53
2022/09/23 03:37:19;;;;;;;9.93;8.93;;;;;;;9.90;nan;101467.22;5010752;28;20041;-53
2022/09/23 03:39:51;;;;;;;9.45;8.50;;;;;;;10.09;nan;101502.78;5011218;28;20038;-52
2022/09/23 03:42:21;;;;;;;9.68;8.52;;;;;;;10.06;nan;101496.72;5010650;28;20109;-53
2022/09/23 03:44:52;;;;;;;10.02;9.02;;;;;;;10.07;nan;101508.97;5012064;28;20100;-52
2022/09/23 03:47:18;;;;;;;9.23;8.32;;;;;;;10.09;nan;101489.66;5014758;28;20026;-61
2022/09/23 03:49:48;;;;;;;9.23;8.18;;;;;;;9.77;nan;101423.69;5015266;28;20034;-51
2022/09/23 03:52:14;;;;;;;9.85;8.52;;;;;;;9.90;nan;101447.94;5015492;28;20109;-51
2022/09/23 03:54:40;;;;;;;9.00;8.13;;;;;;;10.17;nan;101489.50;5014152;28;20030;-56
2022/09/23 03:57:06;;;;;;;11.10;8.93;;;;;;;10.17;nan;101473.72;5015432;28;20030;-51
2022/09/23 03:59:32;;;;;;;10.65;8.60;;;;;;;9.81;nan;101408.69;5014187;28;20473;-51
2022/09/23 04:01:58;;;;;;;10.23;8.52;;;;;;;10.16;nan;101467.59;5015027;28;20037;-51
2022/09/23 04:04:27;;;;;;;11.20;8.70;;;;;;;10.15;nan;101460.63;5014021;28;20064;-57
2022/09/23 04:06:54;;;;;;;10.57;9.05;;;;;;;9.83;nan;101385.88;5030452;28;20489;-56
2022/09/23 04:09:20;;;;;;;9.55;8.65;;;;;;;10.04;nan;101425.72;5015532;28;20389;-57
2022/09/23 04:11:50;;;;;;;9.65;8.68;;;;;;;9.94;nan;101402.28;5015167;28;20034;-58
2022/09/23 04:14:15;;;;;;;9.45;8.55;;;;;;;10.35;nan;101467.22;5014413;28;20054;-49
2022/09/23 04:16:41;;;;;;;9.10;8.25;;;;;;;10.37;nan;101461.00;5015239;28;20389;-49
2022/09/23 04:19:10;;;;;;;10.48;9.15;;;;;;;10.00;nan;101392.50;5014037;28;20117;-53
2022/09/23 04:21:36;;;;;;;9.80;8.85;;;;;;;10.44;nan;101467.00;5014948;28;20041;-58
2022/09/23 04:24:01;;;;;;;9.50;8.57;;;;;;;10.18;nan;101404.44;5015021;28;20044;-54
2022/09/23 04:26:27;;;;;;;9.25;8.38;;;;;;;10.45;nan;101445.91;5014850;28;20030;-56
2022/09/23 04:28:53;;;;;;;9.60;8.57;;;;;;;10.49;nan;101441.44;5014611;28;20041;-53
2022/09/23 04:31:19;;;;;;;10.05;9.05;;;;;;;10.48;nan;101437.94;4996997;28;20042;-51
2022/09/23 04:33:44;;;;;;;10.15;8.75;;;;;;;10.28;nan;101392.78;5014972;28;20036;-51
2022/09/23 04:36:09;;;;;;;11.57;8.43;;;;;;;10.31;nan;101394.47;5013557;28;20073;-52
2022/09/23 04:38:35;;;;;;;14.30;9.20;;;;;;;10.43;nan;101402.09;5014745;28;20085;-49
2022/09/23 04:41:00;;;;;;;10.18;8.95;;;;;;;10.34;nan;101389.16;5014421;28;20048;-57
2022/09/23 04:43:26;;;;;;;12.15;9.50;;;;;;;10.46;nan;101404.66;5014587;28;20093;-53
2022/09/23 04:45:59;;;;;;;10.73;8.60;;;;;;;10.76;nan;101450.50;5014445;28;20052;-51
2022/09/23 04:48:24;;;;;;;12.32;8.77;;;;;;;10.85;nan;101461.69;5014500;28;20037;-57
2022/09/23 04:50:50;;;;;;;9.95;8.95;;;;;;;10.81;nan;101446.84;5014500;28;20038;-56
2022/09/23 04:53:16;;;;;;;9.93;8.85;;;;;;;10.51;nan;101402.78;5013252;28;20074;-51
2022/09/23 04:55:42;;;;;;;9.57;8.05;;;;;;;10.55;nan;101415.00;5014268;28;20516;-50
2022/09/23 04:58:08;;;;;;;12.38;10.18;;;;;;;10.57;nan;101410.53;5013054;28;20041;-56
2022/09/23 05:00:34;;;;;;;10.13;9.13;;;;;;;10.90;nan;101451.91;5012785;28;20034;-53
2022/09/23 05:02:59;;;;;;;9.75;8.77;;;;;;;10.98;nan;101468.38;5013106;28;20374;-50
2022/09/23 05:05:27;;;;;;;11.95;9.48;;;;;;;10.81;nan;101428.41;5014057;28;20040;-56
2022/09/23 05:07:54;;;;;;;8.85;7.85;;;;;;;10.83;nan;101428.38;5014031;28;20374;-50
2022/09/23 05:10:19;;;;;;;11.10;9.00;;;;;;;11.08;nan;101466.38;5012887;28;20560;-52
2022/09/23 05:12:45;;;;;;;12.40;8.15;;;;;;;11.17;nan;101479.34;5013552;28;20113;-56
2022/09/23 05:15:11;;;;;;;12.80;8.18;;;;;;;10.71;nan;101400.59;5013960;28;20484;-51
2022/09/23 05:17:37;;;;;;;9.60;8.60;;;;;;;11.17;nan;101476.72;5013800;28;20034;-49
2022/09/23 05:20:03;;;;;;;9.35;8.40;;;;;;;11.18;nan;101471.38;5013878;28;20083;-55
2022/09/23 05:22:28;;;;;;;10.93;9.25;;;;;;;10.85;nan;101414.28;5013572;28;20481;-53
2022/09/23 05:24:54;;;;;;;9.77;8.38;;;;;;;11.25;nan;101480.00;5013804;28;20026;-51
2022/09/23 05:27:19;;;;;;;9.05;8.25;;;;;;;10.93;nan;101419.34;5012410;28;20046;-53
2022/09/23 05:29:46;;;;;;;9.77;8.57;;;;;;;11.03;nan;101437.50;5013633;28;20076;-47
2022/09/23 05:32:11;;;;;;;10.10;8.95;;;;;;;10.89;nan;101415.03;5013749;28;20104;-48
2022/09/23 05:34:37;;;;;;;12.75;9.32;;;;;;;11.30;nan;101476.34;4996154;28;20057;-48
2022/09/23 05:37:04;;;;;;;12.52;9.70;;;;;;;11.31;nan;101482.50;5013514;28;20038;-52
2022/09/23 05:39:29;;;;;;;11.45;8.85;;;;;;;11.34;nan;101477.16;5013358;28;20483;-51
2022/09/23 05:41:54;;;;;;;11.38;9.02;;;;;;;11.36;nan;101485.00;5013295;28;20125;-49
2022/09/23 05:44:20;;;;;;;9.07;8.13;;;;;;;11.29;nan;101471.97;5013242;28;20441;-51
2022/09/23 05:46:45;;;;;;;11.70;8.65;;;;;;;11.41;nan;101486.66;5012201;28;20473;-55
2022/09/23 05:49:11;;;;;;;9.98;8.90;;;;;;;11.44;nan;101489.16;5013308;28;20049;-52
2022/09/23 05:51:36;;;;;;;10.70;8.25;;;;;;;11.44;nan;101467.25;5012951;28;20037;-52
2022/09/23 05:54:02;;;;;;;9.27;8.35;;;;;;;11.47;nan;101472.44;5011469;28;20034;-51
2022/09/23 05:56:29;;;;;;;9.55;8.55;;;;;;;11.10;nan;101407.47;5011779;28;20462;-53
2022/09/23 05:58:56;;;;;;;12.48;8.57;;;;;;;11.56;nan;101491.50;5011091;28;20370;-54
2022/09/23 06:01:24;;;;;;;9.95;8.95;;;;;;;11.58;nan;101481.81;5011835;28;20100;-53
2022/09/23 06:03:50;;;;;;;12.65;8.75;;;;;;;11.60;nan;101487.88;5012394;28;20037;-56
2022/09/23 06:06:17;;;;;;;11.05;9.43;;;;;;;11.60;nan;101481.75;4995362;28;20029;-55
2022/09/23 06:08:44;;;;;;;14.05;8.70;;;;;;;11.36;nan;101435.78;5027456;28;20124;-62
2022/09/23 06:11:10;;;;;;;9.82;8.57;;;;;;;11.78;nan;101481.28;5011400;28;20092;-57
2022/09/23 06:13:37;;;;;;;10.35;9.27;;;;;;;11.45;nan;101408.31;5012807;28;20052;-57
2022/09/23 06:16:07;;;;;;;9.50;8.65;;;;;;;11.94;nan;101489.66;5012905;28;20030;-60
2022/09/23 06:18:33;;;;;;;9.80;8.80;;;;;;;11.67;nan;101425.31;5011575;28;20057;-55
2022/09/23 06:21:02;;;;;;;10.45;8.73;;;;;;;11.58;nan;101410.59;5012660;28;20034;-55
2022/09/23 06:23:28;;;;;;;11.60;8.88;;;;;;;11.40;nan;101365.41;5011441;28;20080;-57
2022/09/23 06:25:53;;;;;;;13.38;9.32;;;;;;;12.15;nan;101478.47;5012658;28;20034;-56
2022/09/23 06:28:18;;;;;;;12.00;8.63;;;;;;;12.10;nan;101460.16;5011506;28;20116;-55
2022/09/23 06:30:44;;;;;;;13.85;9.32;;;;;;;12.23;nan;101471.22;5011609;28;20092;-57
2022/09/23 06:33:09;;;;;;;11.32;8.82;;;;;;;12.29;nan;101473.66;5012601;28;20036;-60
2022/09/23 06:35:34;;;;;;;12.93;9.23;;;;;;;11.98;nan;101420.06;5012513;28;20037;-58
2022/09/23 06:38:03;;;;;;;10.32;8.20;;;;;;;12.04;nan;101409.31;5011369;28;20042;-55
2022/09/23 06:40:29;;;;;;;12.40;8.35;;;;;;;12.39;nan;101451.38;5012345;28;20030;-58
2022/09/23 06:42:59;;;;;;;10.90;7.82;;;;;;;12.21;nan;101405.28;5012591;28;20040;-58
2022/09/23 06:45:26;;;;;;;11.02;8.73;;;;;;;12.66;nan;101473.44;5012409;28;20038;-55
2022/09/23 06:47:55;;;;;;;11.38;9.60;;;;;;;12.72;nan;101471.47;5012410;28;20455;-54
2022/09/23 06:50:22;;;;;;;10.73;8.88;;;;;;;12.40;nan;101402.94;5012360;28;20045;-58
2022/09/23 06:52:54;;;;;;;12.35;8.02;;;;;;;12.59;nan;101422.59;5011065;28;20122;-57
2022/09/23 06:55:22;;;;;;;13.85;8.73;;;;;;;12.73;nan;101428.28;5012118;28;20036;-61
2022/09/23 06:57:47;;;;;;;9.75;7.20;;;;;;;13.08;nan;101489.72;5026901;28;20063;-59
2022/09/23 07:00:13;;;;;;;9.70;8.70;;;;;;;12.83;nan;101424.44;5030450;28;20034;-59
2022/09/23 07:02:40;;;;;;;10.55;8.55;;;;;;;13.24;nan;101473.34;5031657;28;20141;-56
2022/09/23 07:05:06;;;;;;;14.48;8.25;;;;;;;13.36;nan;101478.22;5031491;28;20123;-58
2022/09/23 07:07:32;;;;;;;11.45;9.05;;;;;;;13.25;nan;101442.47;5029435;28;20120;-60
2022/09/23 07:09:57;;;;;;;11.75;8.73;;;;;;;13.38;nan;101454.34;5032112;28;20109;-56
2022/09/23 07:12:23;;;;;;;11.70;9.18;;;;;;;13.47;nan;101452.28;5031444;28;20547;-60
2022/09/23 07:14:48;;;;;;;12.25;8.77;;;;;;;13.62;nan;101463.22;5031678;28;20408;-60
2022/09/23 07:17:13;;;;;;;10.65;8.10;;;;;;;13.47;nan;101415.25;5031804;28;20477;-59
2022/09/23 07:19:39;;;;;;;11.55;9.07;;;;;;;13.87;nan;101464.06;5031726;28;20588;-58
2022/09/23 07:22:04;;;;;;;12.85;8.02;;;;;;;13.94;nan;101462.94;5034702;28;20041;-59
2022/09/23 07:24:33;;;;;;;12.95;9.45;;;;;;;14.09;nan;101472.97;5035803;28;20100;-60
2022/09/23 07:26:58;;;;;;;9.88;8.63;;;;;;;13.90;nan;101422.50;5035722;28;20038;-58
2022/09/23 07:29:23;;;;;;;9.52;7.38;;;;;;;14.32;nan;101486.25;5035294;28;20043;-61
2022/09/23 07:31:48;;;;;;;10.75;7.60;;;;;;;14.44;nan;101487.59;5035275;28;20060;-58
2022/09/23 07:34:14;;;;;;;11.07;7.50;;;;;;;14.50;nan;101476.75;5034988;28;20255;-60
2022/09/23 07:36:39;;;;;;;14.15;7.68;;;;;;;14.57;nan;101483.53;5033894;28;20049;-57
2022/09/23 07:39:06;;;;;;;12.10;8.15;;;;;;;14.70;nan;101481.28;5035412;28;20124;-60
2022/09/23 07:41:32;;;;;;;9.52;8.02;;;;;;;14.78;nan;101493.31;5035082;28;20507;-57
2022/09/23 07:43:59;;;;;;;10.73;7.63;;;;;;;14.50;nan;101432.59;5035185;28;20378;-59
2022/09/23 07:46:26;;;;;;;11.82;7.97;;;;;;;14.90;nan;101489.31;5035310;28;20044;-58
2022/09/23 07:48:52;;;;;;;11.00;7.60;;;;;;;14.65;nan;101445.22;5034171;28;20025;-57
2022/09/23 07:51:24;;;;;;;10.02;8.00;;;;;;;14.63;nan;101436.47;5035089;28;20060;-59
2022/09/23 07:53:51;;;;;;;10.77;8.05;;;;;;;14.93;nan;101495.34;5035140;28;20029;-59
2022/09/23 07:56:21;;;;;;;10.98;7.95;;;;;;;14.61;nan;101432.16;5034004;28;20118;-58
2022/09/23 07:58:58;;;;;;;11.85;8.02;;;;;;;15.00;nan;101491.50;5033970;28;20400;-60
2022/09/23 08:01:25;;;;;;;8.82;7.88;;;;;;;15.17;nan;101494.38;5034542;28;20041;-55
2022/09/23 08:03:50;;;;;;;15.52;7.70;;;;;;;14.70;nan;101400.00;5033657;28;20044;-58
2022/09/23 08:06:16;;;;;;;14.23;7.53;;;;;;;15.01;nan;101432.28;5033421;28;20029;-59
2022/09/23 08:08:42;;;;;;;10.50;7.88;;;;;;;15.30;nan;101443.44;5032657;28;20026;-59
2022/09/23 08:11:09;;;;;;;11.98;7.70;;;;;;;15.98;nan;101494.44;5034620;28;20033;-57
2022/09/23 08:13:34;;;;;;;11.07;7.55;;;;;;;15.86;nan;101428.63;5032309;28;20445;-58
2022/09/23 08:16:01;;;;;;;9.15;7.55;;;;;;;16.46;nan;101512.59;5034463;28;20080;-57
2022/09/23 08:18:26;;;;;;;8.50;7.25;;;;;;;16.18;nan;101448.41;5021846;28;20073;-59
2022/09/23 08:20:52;;;;;;;12.50;7.68;;;;;;;16.25;nan;101453.38;5014455;28;20060;-58
2022/09/23 08:23:18;;;;;;;9.68;7.45;;;;;;;16.45;nan;101507.38;5020831;28;20477;-58
2022/09/23 08:25:46;;;;;;;9.88;7.10;;;;;;;16.39;nan;101505.00;5032930;28;20484;-60
2022/09/23 08:28:15;;;;;;;10.52;7.75;;;;;;;16.26;nan;101497.59;5023838;28;20029;-59
2022/09/23 08:30:47;;;;;;;8.85;6.57;;;;;;;16.26;nan;101517.97;5027199;28;20057;-59
2022/09/23 08:33:12;;;;;;;10.55;7.55;;;;;;;16.27;nan;101503.75;5016532;28;20062;-59
2022/09/23 08:35:38;;;;;;;9.45;7.30;;;;;;;16.30;nan;101504.50;5023873;28;20064;-60
2022/09/23 08:38:03;;;;;;;10.93;7.20;;;;;;;15.97;nan;101442.25;5026422;28;20058;-60
2022/09/23 08:40:29;;;;;;;8.82;6.75;;;;;;;16.54;nan;101501.69;5024165;28;20036;-59
2022/09/23 08:42:54;;;;;;;8.18;6.47;;;;;;;16.81;nan;101503.88;5032657;28;20061;-60
2022/09/23 08:45:23;;;;;;;8.90;6.10;;;;;;;17.20;nan;101522.38;5016223;28;20038;-60
2022/09/23 08:48:11;;;;;;;8.13;6.75;;;;;;;17.21;nan;101465.59;5027080;28;20025;-60
2022/09/23 08:50:54;;;;;;;8.07;7.05;;;;;;;17.74;nan;101520.59;5026319;28;20037;-57
2022/09/23 08:53:31;;;;;;;11.10;7.00;;;;;;;17.79;nan;101540.72;5022652;28;20033;-57
2022/09/23 08:55:58;;;;;;;9.20;6.95;;;;;;;17.64;nan;101525.53;5033998;28;20030;-58
2022/09/23 08:58:45;;;;;;;8.55;6.10;;;;;;;17.87;nan;101537.66;5049196;28;20033;-59
2022/09/23 09:01:10;;;;;;;9.38;6.32;;;;;;;17.90;nan;101525.06;5032667;28;20373;-61
2022/09/23 09:03:41;;;;;;;8.63;6.53;;;;;;;17.81;nan;101512.22;5033925;28;20040;-61
2022/09/23 09:06:14;;;;;;;9.70;6.60;;;;;;;17.51;nan;101457.00;5033794;28;20423;-60
2022/09/23 09:08:40;;;;;;;9.10;7.00;;;;;;;17.63;nan;101464.38;5033879;28;20598;-60
2022/09/23 09:11:06;;;;;;;10.13;6.70;;;;;;;18.16;nan;101530.81;5049083;28;20048;-59
2022/09/23 09:13:33;;;;;;;10.35;7.10;;;;;;;18.03;nan;101484.47;5031995;28;20132;-60
2022/09/23 09:16:04;;;;;;;7.15;5.93;;;;;;;18.23;nan;101517.09;5033440;28;20037;-59
2022/09/23 09:18:30;;;;;;;11.50;7.22;;;;;;;18.03;nan;101480.00;5033463;28;20026;-57
2022/09/23 09:20:59;;;;;;;8.18;7.00;;;;;;;18.14;nan;101508.72;5031338;28;20037;-60
2022/09/23 09:23:37;;;;;;;11.60;6.88;;;;;;;17.78;nan;101466.22;5032238;28;20037;-60
2022/09/23 09:26:04;;;;;;;10.15;6.68;;;;;;;17.75;nan;101466.38;5013916;28;20038;-63
2022/09/23 09:28:48;;;;;;;8.93;6.65;;;;;;;18.08;nan;101528.56;5031444;28;20037;-59
2022/09/23 09:31:28;;;;;;;8.88;6.78;;;;;;;17.90;nan;101495.75;5015574;28;20029;-59
2022/09/23 09:34:15;;;;;;;10.40;7.47;;;;;;;18.09;nan;101501.00;5031921;28;20469;-62
2022/09/23 09:36:48;;;;;;;9.60;6.90;;;;;;;18.02;nan;101478.25;5033193;28;20120;-61
2022/09/23 09:39:14;;;;;;;13.30;7.68;;;;;;;18.34;nan;101508.50;5033237;28;20029;-60
2022/09/23 09:41:48;;;;;;;9.45;6.75;;;;;;;18.24;nan;101465.50;5031469;28;20133;-60
2022/09/23 09:44:23;;;;;;;10.65;6.45;;;;;;;18.48;nan;101452.63;5032849;28;20030;-62
2022/09/23 09:46:54;;;;;;;8.90;6.68;;;;;;;19.08;nan;101509.72;5015319;28;20565;-62
2022/09/23 09:49:40;;;;;;;10.02;6.10;;;;;;;19.21;nan;101510.72;5032910;28;20034;-61
2022/09/23 09:52:24;;;;;;;10.90;6.78;;;;;;;19.32;nan;101502.13;5031765;28;20038;-61
2022/09/23 09:54:51;;;;;;;8.05;6.22;;;;;;;19.14;nan;101479.16;5032793;28;20068;-59
2022/09/23 09:57:32;;;;;;;8.98;7.22;;;;;;;19.28;nan;101503.25;5031553;28;20029;-61
2022/09/23 09:59:57;;;;;;;;;;;;;;;19.38;nan;101513.28;5032168;28;20075;-60
2022/09/23 10:02:30;;;;;;;11.88;6.50;;;;;;;19.35;nan;101484.09;5012728;28;19918;-60
2022/09/23 10:05:06;;;;;;;7.85;6.57;;;;;;;19.43;nan;101494.38;5012037;28;20041;-60
2022/09/23 10:07:33;;;;;;;7.28;6.57;;;;;;;19.42;nan;101487.31;5012728;28;20432;-59
2022/09/23 10:10:16;;;;;;;9.82;6.43;;;;;;;19.36;nan;101484.97;5011708;28;20072;-61
2022/09/23 10:12:45;;;;;;;10.45;7.07;;;;;;;19.43;nan;101489.91;5011533;28;20046;-61
2022/09/23 10:15:30;;;;;;;10.93;7.07;;;;;;;19.09;nan;101434.03;5012036;28;20393;-60
2022/09/23 10:17:56;;;;;;;12.02;8.05;;;;;;;19.20;nan;101489.47;5013042;28;20389;-60
2022/09/23 10:20:22;;;;;;;10.27;7.20;;;;;;;19.02;nan;101486.94;5012854;28;20048;-62
2022/09/23 10:22:47;;;;;;;10.30;7.13;;;;;;;18.54;nan;101425.66;5011131;28;20037;-63
2022/09/23 10:25:19;;;;;;;9.38;6.13;;;;;;;18.77;nan;101502.56;5012534;28;20038;-60
2022/09/23 10:27:44;;;;;;;11.57;6.70;;;;;;;18.34;nan;101425.88;5011465;28;20034;-60
2022/09/23 10:30:24;;;;;;;13.98;7.35;;;;;;;18.28;nan;101437.75;5011214;28;20036;-60
2022/09/23 10:32:53;;;;;;;10.13;7.18;;;;;;;18.51;nan;101481.81;5011463;28;20034;-60
2022/09/23 10:35:30;;;;;;;8.75;6.85;;;;;;;18.38;nan;101460.31;5018587;28;20107;-60
2022/09/23 10:37:58;;;;;;;11.25;7.05;;;;;;;18.45;nan;101472.34;5031927;28;20038;-61
2022/09/23 10:49:14;;;;;;;9.63;7.15;;;;;;;18.31;nan;101477.56;5031344;28;20104;-62
2022/09/23 10:52:02;;;;;;;15.13;7.25;;;;;;;18.45;nan;101491.00;5030680;28;20044;-64
2022/09/23 10:55:05;;;;;;;11.20;6.07;;;;;;;18.58;nan;101469.03;5031960;28;20033;-61
2022/09/23 10:57:49;;;;;;;10.23;6.22;;;;;;;18.72;nan;101474.44;5034290;28;20060;-60
2022/09/23 11:00:22;;;;;;;8.80;6.50;;;;;;;18.74;nan;101417.41;5036019;28;20025;-60
2022/09/23 11:02:59;;;;;;;9.50;6.65;;;;;;;19.19;nan;101415.69;5034821;28;20041;-62
2022/09/23 11:05:27;;;;;;;8.55;6.63;;;;;;;20.02;nan;101486.28;5036375;28;20120;-60
2022/09/23 11:08:21;;;;;;;9.68;6.22;;;;;;;20.43;nan;101494.44;5034580;28;20033;-60
2022/09/23 11:10:56;;;;;;;9.98;5.75;;;;;;;20.63;nan;101501.22;5033923;28;20552;-61
2022/09/23 11:13:27;;;;;;;9.73;5.90;;;;;;;20.67;nan;101492.03;5034245;28;20050;-61
2022/09/23 11:16:23;;;;;;;8.35;5.70;;;;;;;20.77;nan;101479.78;5036233;28;20388;-62
2022/09/23 11:19:22;;;;;;;8.10;5.57;;;;;;;20.55;nan;101482.09;5018659;28;20496;-62
2022/09/23 11:22:01;;;;;;;11.75;5.65;;;;;;;-142.64;100.00;58178.75;5000231;28;20050;-59
2022/09/23 11:24:46;;;;;;;9.05;6.18;;;;;;;22.62;100.00;58178.75;5016176;28;20037;-59
2022/09/23 11:27:24;;;;;;;6.95;6.05;;;;;;;22.55;75.35;58178.75;4999051;28;20029;-60
2022/09/23 11:30:00;;;;;;;11.07;6.28;;;;;;;22.55;74.00;58178.75;5014891;28;20040;-61
2022/09/23 11:32:49;;;;;;;7.60;5.38;;;;;;;;;;5014999;28;20037;-60
2022/09/23 11:35:30;;;;;;;8.90;5.15;;;;;;;22.55;75.35;58178.75;4994913;28;20052;-57
2022/09/23 11:38:10;;;;;;;5.65;5.07;;;;;;;22.55;100.00;58178.75;5015666;28;20034;-61
2022/09/23 11:40:36;;;;;;;6.82;5.43;;;;;;;;;;5015460;28;20489;-61
2022/09/23 11:43:22;;;;;;;8.20;6.00;;;;;;;;;;5015729;28;20409;-60
2022/09/23 11:45:56;;;;;;;7.82;5.63;;;;;;;;;;5015466;28;20033;-60
2022/09/23 11:48:31;;;;;;;9.77;6.28;;;;;;;22.46;nan;101467.28;5015435;28;20057;-61
2022/09/23 11:51:13;;;;;;;6.95;5.53;;;;;;;22.92;nan;101470.19;5014016;28;20034;-60
2022/09/23 11:53:46;;;;;;;9.40;6.43;;;;;;;23.42;nan;101466.44;4998054;28;20448;-63
2022/09/23 11:56:20;;;;;;;7.40;5.90;;;;;;;23.96;nan;101474.75;5014319;28;20033;-61
2022/09/23 11:58:52;;;;;;;6.22;5.63;;;;;;;23.94;nan;101431.84;5015520;28;20083;-61
2022/09/23 12:01:30;;;;;;;9.75;6.35;;;;;;;23.92;nan;101419.50;5015253;28;20033;-62
2022/09/23 12:04:01;;;;;;;7.38;5.78;;;;;;;23.86;nan;101471.06;5014457;28;20072;-61
2022/09/23 12:06:35;;;;;;;8.70;6.00;;;;;;;23.40;nan;101460.31;5014053;28;20037;-61
2022/09/23 12:09:03;;;;;;;9.30;5.97;;;;;;;23.05;nan;101464.75;5034700;28;20025;-60